LTFM Airport Information

Runway Information
Airport Frequencies
Airport Navaids
Airport Weather Information & NOTAM
ADDS - METARS form results

(2131 UTC 19 September 2020)
Data provider http://aviationweather.gov/metar/data/
 
METAR text: LTFM 192120Z 04015KT 9999 BKN033 20/12 Q1019 NOSIG
Conditions at: LTFM (ISTANBUL HANALI , TR) observed 2120 UTC 19 September 2020
Temperature: 20.0°C (68°F)
Dewpoint: 12.0°C (54°F) [RH = 60%]
Pressure (altimeter): 30.09 inches Hg (1019.0 mb)
Winds: from the NE (40 degrees) at 17 MPH (15 knots; 7.7 m/s)
Visibility: 6 or more miles (10+ km)
Ceiling: 3300 feet AGL
Clouds: broken clouds at 3300 feet AGL
Weather: no significant weather observed at this time

METAR text: LTFM 192050Z 04015KT 9999 BKN033 20/11 Q1019 NOSIG RMK RWY17L 05013KT RWY34L 04012KT RWY16R 04013KT RWY36 04016KT RWY18 05014KT
Conditions at: LTFM (ISTANBUL HANALI , TR) observed 2050 UTC 19 September 2020
Temperature: 20.0°C (68°F)
Dewpoint: 11.0°C (52°F) [RH = 56%]
Pressure (altimeter): 30.09 inches Hg (1019.0 mb)
Winds: from the NE (40 degrees) at 17 MPH (15 knots; 7.7 m/s)
Visibility: 6 or more miles (10+ km)
Ceiling: 3300 feet AGL
Clouds: broken clouds at 3300 feet AGL
Weather: no significant weather observed at this time

Forecast for: LTFM (ISTANBUL HANALI , TR)
Text: TAF LTFM 191640Z 1918/2024 04018KT 9999 BKN033
Forecast period: 1800 UTC 19 September 2020 to 0000 UTC 21 September 2020
Forecast type: FROM: standard forecast or significant change
Winds: from the NE (40 degrees) at 21 MPH (18 knots; 9.3 m/s)
Visibility: 6 or more miles (10+ km)
Ceiling: 3300 feet AGL
Clouds: broken clouds at 3300 feet AGL
Weather: no significant weather forecast for this period
Text: PROB40
Forecast period: 1000 to 1400 UTC 20 September 2020
Forecast type: TEMPORARY: The following changes expected for less than half the time period
Winds: from the NNE (30 degrees) at 23 MPH (20 knots; 10.3 m/s)
gusting to 34 MPH (30 knots; 15.4 m/s)
Visibility: missing
Ceiling: 2500 feet AGL
Clouds: broken clouds at 2500 feet AGL
Weather: -SHRA  (light rain showers)